Colchester, United Kingdom
Current Conditions -  °F | °C
As of 5:50 AM on Saturday 25 Oct 2014 (Local Time) from EGUW Reporting Station
Clear Clear  
Wind Chill: 41°   Ceiling: Unl
Heat Index: 45°   Visibility: 2.1mi
Dew Point: 43°   Wind: 6mph
Humidity: 93%   Direction: 220°SW
Pressure: 30"   Gusts: NA
Location:  51.89°N, 0.9°E
Report Text: EGUW 250450Z AUTO 22005KT 3500 NCD 07/06 Q1016
Loading
Personal Weather Stations






























Interactive Weather Map New forecast layout! Learn more

10-Day Weather Forecast

Advertisements
Track Severe Weather on mobile